sensor_id;sensor_type;location;lat;lon;timestamp;P1;durP1;ratioP1;P2;durP2;ratioP2
5690;SDS011;2870;42.680;23.364;2023-04-06T00:00:10;13.43;;;10.23;;
5690;SDS011;2870;42.680;23.364;2023-04-06T00:02:37;14.87;;;10.80;;
5690;SDS011;2870;42.680;23.364;2023-04-06T00:05:05;11.70;;;9.10;;
5690;SDS011;2870;42.680;23.364;2023-04-06T00:07:32;11.37;;;9.40;;
5690;SDS011;2870;42.680;23.364;2023-04-06T00:10:01;12.97;;;10.03;;
5690;SDS011;2870;42.680;23.364;2023-04-06T00:12:28;12.63;;;10.30;;
5690;SDS011;2870;42.680;23.364;2023-04-06T00:14:55;11.30;;;9.10;;
5690;SDS011;2870;42.680;23.364;2023-04-06T00:17:22;10.57;;;9.48;;
5690;SDS011;2870;42.680;23.364;2023-04-06T00:19:49;11.03;;;8.40;;
5690;SDS011;2870;42.680;23.364;2023-04-06T00:22:16;13.00;;;10.40;;
5690;SDS011;2870;42.680;23.364;2023-04-06T00:24:43;8.53;;;7.27;;
5690;SDS011;2870;42.680;23.364;2023-04-06T00:27:11;12.18;;;9.73;;
5690;SDS011;2870;42.680;23.364;2023-04-06T00:29:39;12.40;;;9.13;;
5690;SDS011;2870;42.680;23.364;2023-04-06T00:32:06;12.07;;;9.05;;
5690;SDS011;2870;42.680;23.364;2023-04-06T00:34:33;12.93;;;9.87;;
5690;SDS011;2870;42.680;23.364;2023-04-06T00:37:00;12.70;;;10.33;;
5690;SDS011;2870;42.680;23.364;2023-04-06T00:39:26;12.80;;;9.73;;
5690;SDS011;2870;42.680;23.364;2023-04-06T00:41:53;12.47;;;10.03;;
5690;SDS011;2870;42.680;23.364;2023-04-06T00:44:24;13.40;;;10.23;;
5690;SDS011;2870;42.680;23.364;2023-04-06T00:46:51;12.43;;;10.10;;
5690;SDS011;2870;42.680;23.364;2023-04-06T00:49:18;10.20;;;8.83;;
5690;SDS011;2870;42.680;23.364;2023-04-06T00:51:45;11.33;;;9.20;;
5690;SDS011;2870;42.680;23.364;2023-04-06T00:54:12;11.87;;;9.47;;
5690;SDS011;2870;42.680;23.364;2023-04-06T00:56:39;12.93;;;9.07;;
5690;SDS011;2870;42.680;23.364;2023-04-06T00:59:07;11.67;;;8.67;;
5690;SDS011;2870;42.680;23.364;2023-04-06T01:01:36;14.23;;;10.17;;
5690;SDS011;2870;42.680;23.364;2023-04-06T01:04:02;14.07;;;10.43;;
5690;SDS011;2870;42.680;23.364;2023-04-06T01:06:29;12.53;;;9.50;;
5690;SDS011;2870;42.680;23.364;2023-04-06T01:08:56;12.57;;;9.53;;
5690;SDS011;2870;42.680;23.364;2023-04-06T01:11:23;11.90;;;9.13;;
5690;SDS011;2870;42.680;23.364;2023-04-06T01:13:51;11.10;;;9.00;;
5690;SDS011;2870;42.680;23.364;2023-04-06T01:16:18;14.73;;;9.30;;
5690;SDS011;2870;42.680;23.364;2023-04-06T01:18:46;11.47;;;8.00;;
5690;SDS011;2870;42.680;23.364;2023-04-06T01:21:13;11.33;;;8.43;;
5690;SDS011;2870;42.680;23.364;2023-04-06T01:23:43;10.13;;;8.30;;
5690;SDS011;2870;42.680;23.364;2023-04-06T01:26:11;12.57;;;8.50;;
5690;SDS011;2870;42.680;23.364;2023-04-06T01:28:38;10.80;;;9.20;;
5690;SDS011;2870;42.680;23.364;2023-04-06T01:31:06;13.77;;;9.70;;
5690;SDS011;2870;42.680;23.364;2023-04-06T01:33:33;12.50;;;9.33;;
5690;SDS011;2870;42.680;23.364;2023-04-06T01:36:01;15.47;;;10.43;;
5690;SDS011;2870;42.680;23.364;2023-04-06T01:38:27;12.37;;;9.20;;
5690;SDS011;2870;42.680;23.364;2023-04-06T01:40:56;9.63;;;8.43;;
5690;SDS011;2870;42.680;23.364;2023-04-06T01:43:23;10.03;;;8.53;;
5690;SDS011;2870;42.680;23.364;2023-04-06T01:45:50;12.03;;;8.93;;
5690;SDS011;2870;42.680;23.364;2023-04-06T01:48:16;9.60;;;8.27;;
5690;SDS011;2870;42.680;23.364;2023-04-06T01:50:43;12.15;;;8.50;;
5690;SDS011;2870;42.680;23.364;2023-04-06T01:53:10;11.23;;;8.73;;
5690;SDS011;2870;42.680;23.364;2023-04-06T01:55:37;13.30;;;9.57;;
5690;SDS011;2870;42.680;23.364;2023-04-06T01:58:05;9.20;;;8.20;;
5690;SDS011;2870;42.680;23.364;2023-04-06T02:00:33;9.17;;;8.27;;
5690;SDS011;2870;42.680;23.364;2023-04-06T02:03:00;13.77;;;10.10;;
5690;SDS011;2870;42.680;23.364;2023-04-06T02:05:27;14.27;;;9.40;;
5690;SDS011;2870;42.680;23.364;2023-04-06T02:07:55;10.77;;;8.97;;
5690;SDS011;2870;42.680;23.364;2023-04-06T02:10:23;14.77;;;9.67;;
5690;SDS011;2870;42.680;23.364;2023-04-06T02:12:49;11.70;;;9.47;;
5690;SDS011;2870;42.680;23.364;2023-04-06T02:15:18;14.17;;;9.00;;
5690;SDS011;2870;42.680;23.364;2023-04-06T02:17:45;14.03;;;10.80;;
5690;SDS011;2870;42.680;23.364;2023-04-06T02:20:11;12.67;;;9.87;;
5690;SDS011;2870;42.680;23.364;2023-04-06T02:22:38;11.30;;;9.33;;
5690;SDS011;2870;42.680;23.364;2023-04-06T02:25:06;11.90;;;9.77;;
5690;SDS011;2870;42.680;23.364;2023-04-06T02:27:34;12.13;;;9.67;;
5690;SDS011;2870;42.680;23.364;2023-04-06T02:30:01;11.13;;;9.30;;
5690;SDS011;2870;42.680;23.364;2023-04-06T02:32:29;12.23;;;8.63;;
5690;SDS011;2870;42.680;23.364;2023-04-06T02:34:56;13.20;;;10.60;;
5690;SDS011;2870;42.680;23.364;2023-04-06T02:37:23;10.63;;;8.50;;
5690;SDS011;2870;42.680;23.364;2023-04-06T02:39:50;12.77;;;10.13;;
5690;SDS011;2870;42.680;23.364;2023-04-06T02:42:17;10.97;;;9.20;;
5690;SDS011;2870;42.680;23.364;2023-04-06T02:44:44;10.40;;;9.30;;
5690;SDS011;2870;42.680;23.364;2023-04-06T02:47:11;13.33;;;9.53;;
5690;SDS011;2870;42.680;23.364;2023-04-06T02:49:40;12.03;;;9.27;;
5690;SDS011;2870;42.680;23.364;2023-04-06T02:52:06;12.68;;;9.18;;
5690;SDS011;2870;42.680;23.364;2023-04-06T02:54:33;11.23;;;8.60;;
5690;SDS011;2870;42.680;23.364;2023-04-06T02:57:00;11.50;;;8.80;;
5690;SDS011;2870;42.680;23.364;2023-04-06T02:59:27;10.23;;;9.00;;
5690;SDS011;2870;42.680;23.364;2023-04-06T03:01:54;13.10;;;9.40;;
5690;SDS011;2870;42.680;23.364;2023-04-06T03:04:21;10.77;;;8.97;;
5690;SDS011;2870;42.680;23.364;2023-04-06T03:06:51;10.37;;;8.07;;
5690;SDS011;2870;42.680;23.364;2023-04-06T03:09:20;11.27;;;9.07;;
5690;SDS011;2870;42.680;23.364;2023-04-06T03:11:47;12.37;;;8.97;;
5690;SDS011;2870;42.680;23.364;2023-04-06T03:14:14;13.97;;;10.23;;
5690;SDS011;2870;42.680;23.364;2023-04-06T03:16:42;11.17;;;9.10;;
5690;SDS011;2870;42.680;23.364;2023-04-06T03:19:09;10.70;;;8.23;;
5690;SDS011;2870;42.680;23.364;2023-04-06T03:21:36;12.13;;;9.70;;
5690;SDS011;2870;42.680;23.364;2023-04-06T03:24:05;14.13;;;7.60;;
5690;SDS011;2870;42.680;23.364;2023-04-06T03:26:32;9.90;;;8.70;;
5690;SDS011;2870;42.680;23.364;2023-04-06T03:28:59;11.57;;;9.10;;
5690;SDS011;2870;42.680;23.364;2023-04-06T03:31:26;11.30;;;8.37;;
5690;SDS011;2870;42.680;23.364;2023-04-06T03:33:53;11.20;;;8.60;;
5690;SDS011;2870;42.680;23.364;2023-04-06T03:36:20;9.60;;;7.90;;
5690;SDS011;2870;42.680;23.364;2023-04-06T03:38:47;10.00;;;8.90;;
5690;SDS011;2870;42.680;23.364;2023-04-06T03:41:15;11.90;;;8.30;;
5690;SDS011;2870;42.680;23.364;2023-04-06T03:43:42;14.50;;;8.57;;
5690;SDS011;2870;42.680;23.364;2023-04-06T03:46:09;10.67;;;8.20;;
5690;SDS011;2870;42.680;23.364;2023-04-06T03:48:35;9.23;;;7.67;;
5690;SDS011;2870;42.680;23.364;2023-04-06T03:51:02;11.80;;;7.97;;
5690;SDS011;2870;42.680;23.364;2023-04-06T03:53:30;11.80;;;8.67;;
5690;SDS011;2870;42.680;23.364;2023-04-06T03:55:56;10.60;;;7.93;;
5690;SDS011;2870;42.680;23.364;2023-04-06T03:58:25;9.87;;;7.70;;
5690;SDS011;2870;42.680;23.364;2023-04-06T04:00:52;9.90;;;7.80;;
5690;SDS011;2870;42.680;23.364;2023-04-06T04:03:19;9.83;;;8.30;;
5690;SDS011;2870;42.680;23.364;2023-04-06T04:05:46;13.93;;;8.83;;
5690;SDS011;2870;42.680;23.364;2023-04-06T04:08:14;12.47;;;9.60;;
5690;SDS011;2870;42.680;23.364;2023-04-06T04:10:40;11.93;;;8.60;;
5690;SDS011;2870;42.680;23.364;2023-04-06T04:13:07;14.20;;;9.73;;
5690;SDS011;2870;42.680;23.364;2023-04-06T04:15:36;11.40;;;8.27;;
5690;SDS011;2870;42.680;23.364;2023-04-06T04:18:03;12.17;;;10.20;;
5690;SDS011;2870;42.680;23.364;2023-04-06T04:20:30;10.93;;;8.65;;
5690;SDS011;2870;42.680;23.364;2023-04-06T04:22:57;9.60;;;8.03;;
5690;SDS011;2870;42.680;23.364;2023-04-06T04:25:23;12.87;;;9.30;;
5690;SDS011;2870;42.680;23.364;2023-04-06T04:27:50;16.20;;;9.60;;
5690;SDS011;2870;42.680;23.364;2023-04-06T04:30:17;12.87;;;10.10;;
5690;SDS011;2870;42.680;23.364;2023-04-06T04:32:46;13.60;;;9.77;;
5690;SDS011;2870;42.680;23.364;2023-04-06T04:35:13;14.57;;;9.90;;
5690;SDS011;2870;42.680;23.364;2023-04-06T04:37:40;11.90;;;9.67;;
5690;SDS011;2870;42.680;23.364;2023-04-06T04:40:08;12.30;;;8.90;;
5690;SDS011;2870;42.680;23.364;2023-04-06T04:42:35;14.03;;;10.03;;
5690;SDS011;2870;42.680;23.364;2023-04-06T04:45:02;12.07;;;8.50;;
5690;SDS011;2870;42.680;23.364;2023-04-06T04:47:30;10.90;;;8.37;;
5690;SDS011;2870;42.680;23.364;2023-04-06T04:49:58;13.80;;;9.57;;
5690;SDS011;2870;42.680;23.364;2023-04-06T04:52:25;12.10;;;9.23;;
5690;SDS011;2870;42.680;23.364;2023-04-06T04:54:52;11.60;;;8.87;;
5690;SDS011;2870;42.680;23.364;2023-04-06T04:57:19;13.50;;;9.50;;
5690;SDS011;2870;42.680;23.364;2023-04-06T04:59:45;14.47;;;9.20;;
5690;SDS011;2870;42.680;23.364;2023-04-06T05:02:13;12.50;;;9.57;;
5690;SDS011;2870;42.680;23.364;2023-04-06T05:04:39;21.08;;;7.40;;
5690;SDS011;2870;42.680;23.364;2023-04-06T05:07:08;17.10;;;11.70;;
5690;SDS011;2870;42.680;23.364;2023-04-06T05:09:35;17.77;;;9.10;;
5690;SDS011;2870;42.680;23.364;2023-04-06T05:12:02;13.90;;;9.47;;
5690;SDS011;2870;42.680;23.364;2023-04-06T05:14:30;15.10;;;9.83;;
5690;SDS011;2870;42.680;23.364;2023-04-06T05:16:57;11.57;;;9.47;;
5690;SDS011;2870;42.680;23.364;2023-04-06T05:19:24;15.50;;;10.93;;
5690;SDS011;2870;42.680;23.364;2023-04-06T05:21:51;13.20;;;10.00;;
5690;SDS011;2870;42.680;23.364;2023-04-06T05:24:19;13.73;;;9.40;;
5690;SDS011;2870;42.680;23.364;2023-04-06T05:26:47;16.50;;;9.73;;
5690;SDS011;2870;42.680;23.364;2023-04-06T05:29:14;13.70;;;8.93;;
5690;SDS011;2870;42.680;23.364;2023-04-06T05:31:42;11.43;;;9.27;;
5690;SDS011;2870;42.680;23.364;2023-04-06T05:34:09;14.93;;;10.30;;
5690;SDS011;2870;42.680;23.364;2023-04-06T05:36:36;13.50;;;9.83;;
5690;SDS011;2870;42.680;23.364;2023-04-06T05:39:03;18.07;;;11.27;;
5690;SDS011;2870;42.680;23.364;2023-04-06T05:41:31;18.70;;;11.77;;
5690;SDS011;2870;42.680;23.364;2023-04-06T05:43:58;13.63;;;9.90;;
5690;SDS011;2870;42.680;23.364;2023-04-06T05:46:25;32.80;;;14.73;;
5690;SDS011;2870;42.680;23.364;2023-04-06T05:48:51;16.57;;;11.90;;
5690;SDS011;2870;42.680;23.364;2023-04-06T05:51:19;15.60;;;12.57;;
5690;SDS011;2870;42.680;23.364;2023-04-06T05:53:46;19.30;;;11.13;;
5690;SDS011;2870;42.680;23.364;2023-04-06T05:56:12;15.33;;;10.70;;
5690;SDS011;2870;42.680;23.364;2023-04-06T05:58:41;14.70;;;10.17;;
5690;SDS011;2870;42.680;23.364;2023-04-06T06:01:08;17.50;;;11.53;;
5690;SDS011;2870;42.680;23.364;2023-04-06T06:03:35;29.33;;;10.90;;
5690;SDS011;2870;42.680;23.364;2023-04-06T06:06:02;17.27;;;12.10;;
5690;SDS011;2870;42.680;23.364;2023-04-06T06:08:30;17.97;;;10.73;;
5690;SDS011;2870;42.680;23.364;2023-04-06T06:10:57;23.70;;;10.60;;
5690;SDS011;2870;42.680;23.364;2023-04-06T06:13:24;21.20;;;12.23;;
5690;SDS011;2870;42.680;23.364;2023-04-06T06:15:52;19.07;;;12.07;;
5690;SDS011;2870;42.680;23.364;2023-04-06T06:18:19;18.70;;;13.10;;
5690;SDS011;2870;42.680;23.364;2023-04-06T06:20:46;19.10;;;12.90;;
5690;SDS011;2870;42.680;23.364;2023-04-06T06:23:13;18.47;;;11.90;;
5690;SDS011;2870;42.680;23.364;2023-04-06T06:25:40;21.57;;;11.80;;
5690;SDS011;2870;42.680;23.364;2023-04-06T06:28:07;13.90;;;10.00;;
5690;SDS011;2870;42.680;23.364;2023-04-06T06:30:34;17.03;;;12.20;;
5690;SDS011;2870;42.680;23.364;2023-04-06T06:33:03;15.90;;;12.10;;
5690;SDS011;2870;42.680;23.364;2023-04-06T06:35:30;14.93;;;10.77;;
5690;SDS011;2870;42.680;23.364;2023-04-06T06:37:56;17.43;;;11.40;;
5690;SDS011;2870;42.680;23.364;2023-04-06T06:40:23;19.80;;;13.10;;
5690;SDS011;2870;42.680;23.364;2023-04-06T06:42:51;20.43;;;13.00;;
5690;SDS011;2870;42.680;23.364;2023-04-06T06:45:18;18.60;;;12.50;;
5690;SDS011;2870;42.680;23.364;2023-04-06T06:47:45;16.13;;;11.60;;
5690;SDS011;2870;42.680;23.364;2023-04-06T06:50:13;21.43;;;12.27;;
5690;SDS011;2870;42.680;23.364;2023-04-06T06:52:40;16.13;;;10.80;;
5690;SDS011;2870;42.680;23.364;2023-04-06T06:55:08;15.90;;;10.60;;
5690;SDS011;2870;42.680;23.364;2023-04-06T06:57:36;16.90;;;11.57;;
5690;SDS011;2870;42.680;23.364;2023-04-06T07:00:03;18.93;;;10.90;;
5690;SDS011;2870;42.680;23.364;2023-04-06T07:02:33;22.87;;;13.90;;
5690;SDS011;2870;42.680;23.364;2023-04-06T07:05:00;14.30;;;10.17;;
5690;SDS011;2870;42.680;23.364;2023-04-06T07:07:29;15.03;;;10.23;;
5690;SDS011;2870;42.680;23.364;2023-04-06T07:09:56;16.50;;;11.30;;
5690;SDS011;2870;42.680;23.364;2023-04-06T07:12:23;17.30;;;11.93;;
5690;SDS011;2870;42.680;23.364;2023-04-06T07:14:50;12.60;;;10.20;;
5690;SDS011;2870;42.680;23.364;2023-04-06T07:17:17;20.20;;;11.53;;
5690;SDS011;2870;42.680;23.364;2023-04-06T07:19:44;16.03;;;9.97;;
5690;SDS011;2870;42.680;23.364;2023-04-06T07:22:11;14.73;;;10.87;;
5690;SDS011;2870;42.680;23.364;2023-04-06T07:24:39;16.40;;;11.83;;
5690;SDS011;2870;42.680;23.364;2023-04-06T07:27:06;13.80;;;10.87;;
5690;SDS011;2870;42.680;23.364;2023-04-06T07:29:33;18.40;;;12.20;;
5690;SDS011;2870;42.680;23.364;2023-04-06T07:32:00;19.20;;;11.57;;
5690;SDS011;2870;42.680;23.364;2023-04-06T07:34:27;18.03;;;11.27;;
5690;SDS011;2870;42.680;23.364;2023-04-06T07:36:54;15.90;;;11.20;;
5690;SDS011;2870;42.680;23.364;2023-04-06T07:39:21;16.50;;;10.53;;
5690;SDS011;2870;42.680;23.364;2023-04-06T07:41:50;19.47;;;13.23;;
5690;SDS011;2870;42.680;23.364;2023-04-06T07:44:17;18.07;;;12.20;;
5690;SDS011;2870;42.680;23.364;2023-04-06T07:46:44;20.23;;;12.40;;
5690;SDS011;2870;42.680;23.364;2023-04-06T07:49:11;17.40;;;12.40;;
5690;SDS011;2870;42.680;23.364;2023-04-06T07:51:38;18.20;;;12.60;;
5690;SDS011;2870;42.680;23.364;2023-04-06T07:54:05;16.07;;;11.10;;
5690;SDS011;2870;42.680;23.364;2023-04-06T07:56:32;18.00;;;12.33;;
5690;SDS011;2870;42.680;23.364;2023-04-06T07:59:01;15.07;;;11.30;;
5690;SDS011;2870;42.680;23.364;2023-04-06T08:01:28;15.20;;;11.70;;
5690;SDS011;2870;42.680;23.364;2023-04-06T08:03:55;14.27;;;10.17;;
5690;SDS011;2870;42.680;23.364;2023-04-06T08:06:22;20.03;;;11.80;;
5690;SDS011;2870;42.680;23.364;2023-04-06T08:08:49;16.57;;;11.23;;
5690;SDS011;2870;42.680;23.364;2023-04-06T08:11:16;16.67;;;11.40;;
5690;SDS011;2870;42.680;23.364;2023-04-06T08:13:43;22.63;;;12.47;;
5690;SDS011;2870;42.680;23.364;2023-04-06T08:16:11;17.80;;;11.40;;
5690;SDS011;2870;42.680;23.364;2023-04-06T08:18:38;16.13;;;11.20;;
5690;SDS011;2870;42.680;23.364;2023-04-06T08:21:05;25.93;;;12.90;;
5690;SDS011;2870;42.680;23.364;2023-04-06T08:23:32;14.70;;;11.37;;
5690;SDS011;2870;42.680;23.364;2023-04-06T08:25:59;18.50;;;10.40;;
5690;SDS011;2870;42.680;23.364;2023-04-06T08:28:26;23.33;;;13.07;;
5690;SDS011;2870;42.680;23.364;2023-04-06T08:30:53;16.00;;;10.57;;
5690;SDS011;2870;42.680;23.364;2023-04-06T08:33:21;16.27;;;10.63;;
5690;SDS011;2870;42.680;23.364;2023-04-06T08:35:48;15.83;;;10.90;;
5690;SDS011;2870;42.680;23.364;2023-04-06T08:38:15;15.63;;;11.77;;
5690;SDS011;2870;42.680;23.364;2023-04-06T08:40:42;15.70;;;10.83;;
5690;SDS011;2870;42.680;23.364;2023-04-06T08:43:13;14.90;;;11.10;;
5690;SDS011;2870;42.680;23.364;2023-04-06T08:45:41;15.90;;;10.80;;
5690;SDS011;2870;42.680;23.364;2023-04-06T08:48:09;17.00;;;11.90;;
5690;SDS011;2870;42.680;23.364;2023-04-06T08:50:37;13.23;;;9.57;;
5690;SDS011;2870;42.680;23.364;2023-04-06T08:53:06;15.70;;;10.90;;
5690;SDS011;2870;42.680;23.364;2023-04-06T08:55:34;16.50;;;11.93;;
5690;SDS011;2870;42.680;23.364;2023-04-06T08:58:02;19.70;;;10.90;;
5690;SDS011;2870;42.680;23.364;2023-04-06T09:00:30;15.63;;;11.47;;
5690;SDS011;2870;42.680;23.364;2023-04-06T09:02:58;15.83;;;10.20;;
5690;SDS011;2870;42.680;23.364;2023-04-06T09:05:25;14.83;;;10.10;;
5690;SDS011;2870;42.680;23.364;2023-04-06T09:07:54;18.80;;;12.17;;
5690;SDS011;2870;42.680;23.364;2023-04-06T09:10:21;14.50;;;9.30;;
5690;SDS011;2870;42.680;23.364;2023-04-06T09:12:50;16.00;;;11.20;;
5690;SDS011;2870;42.680;23.364;2023-04-06T09:15:17;17.60;;;10.63;;
5690;SDS011;2870;42.680;23.364;2023-04-06T09:17:45;19.50;;;10.50;;
5690;SDS011;2870;42.680;23.364;2023-04-06T09:20:11;16.77;;;11.37;;
5690;SDS011;2870;42.680;23.364;2023-04-06T09:22:39;20.70;;;10.90;;
5690;SDS011;2870;42.680;23.364;2023-04-06T09:25:08;14.40;;;9.70;;
5690;SDS011;2870;42.680;23.364;2023-04-06T09:27:36;17.87;;;10.57;;
5690;SDS011;2870;42.680;23.364;2023-04-06T09:30:04;15.63;;;9.87;;
5690;SDS011;2870;42.680;23.364;2023-04-06T09:32:43;11.60;;;9.20;;
5690;SDS011;2870;42.680;23.364;2023-04-06T09:35:12;23.50;;;10.57;;
5690;SDS011;2870;42.680;23.364;2023-04-06T09:37:39;15.00;;;10.90;;
5690;SDS011;2870;42.680;23.364;2023-04-06T09:40:07;16.00;;;12.00;;
5690;SDS011;2870;42.680;23.364;2023-04-06T09:42:35;17.40;;;10.57;;
5690;SDS011;2870;42.680;23.364;2023-04-06T09:45:02;14.80;;;10.80;;
5690;SDS011;2870;42.680;23.364;2023-04-06T09:47:30;15.10;;;11.33;;
5690;SDS011;2870;42.680;23.364;2023-04-06T09:49:58;17.50;;;10.90;;
5690;SDS011;2870;42.680;23.364;2023-04-06T09:52:26;20.33;;;11.10;;
5690;SDS011;2870;42.680;23.364;2023-04-06T09:54:59;15.50;;;11.20;;
5690;SDS011;2870;42.680;23.364;2023-04-06T09:57:31;15.03;;;11.40;;
5690;SDS011;2870;42.680;23.364;2023-04-06T10:00:04;14.40;;;11.10;;
5690;SDS011;2870;42.680;23.364;2023-04-06T10:02:37;16.80;;;10.57;;
5690;SDS011;2870;42.680;23.364;2023-04-06T10:05:13;22.23;;;11.87;;
5690;SDS011;2870;42.680;23.364;2023-04-06T10:07:46;15.23;;;11.17;;
5690;SDS011;2870;42.680;23.364;2023-04-06T10:10:15;15.67;;;11.00;;
5690;SDS011;2870;42.680;23.364;2023-04-06T10:12:44;22.97;;;10.67;;
5690;SDS011;2870;42.680;23.364;2023-04-06T10:15:13;14.17;;;10.20;;
5690;SDS011;2870;42.680;23.364;2023-04-06T10:17:40;18.33;;;11.63;;
5690;SDS011;2870;42.680;23.364;2023-04-06T10:20:08;14.13;;;9.60;;
5690;SDS011;2870;42.680;23.364;2023-04-06T10:22:41;13.07;;;10.10;;
5690;SDS011;2870;42.680;23.364;2023-04-06T10:25:16;15.87;;;10.60;;
5690;SDS011;2870;42.680;23.364;2023-04-06T10:27:44;14.07;;;10.00;;
5690;SDS011;2870;42.680;23.364;2023-04-06T10:30:11;16.97;;;9.97;;
5690;SDS011;2870;42.680;23.364;2023-04-06T10:32:42;15.50;;;10.80;;
5690;SDS011;2870;42.680;23.364;2023-04-06T10:35:09;13.40;;;10.27;;
5690;SDS011;2870;42.680;23.364;2023-04-06T10:37:49;20.13;;;11.97;;
5690;SDS011;2870;42.680;23.364;2023-04-06T10:40:21;17.07;;;11.00;;
5690;SDS011;2870;42.680;23.364;2023-04-06T10:42:51;14.00;;;10.60;;
5690;SDS011;2870;42.680;23.364;2023-04-06T10:45:19;14.80;;;10.73;;
5690;SDS011;2870;42.680;23.364;2023-04-06T10:47:47;16.70;;;11.00;;
5690;SDS011;2870;42.680;23.364;2023-04-06T10:50:15;16.47;;;10.30;;
5690;SDS011;2870;42.680;23.364;2023-04-06T10:52:43;13.97;;;10.93;;
5690;SDS011;2870;42.680;23.364;2023-04-06T10:55:10;16.40;;;10.73;;
5690;SDS011;2870;42.680;23.364;2023-04-06T10:57:39;13.70;;;9.93;;
5690;SDS011;2870;42.680;23.364;2023-04-06T11:00:11;17.87;;;11.03;;
5690;SDS011;2870;42.680;23.364;2023-04-06T11:02:39;15.97;;;11.00;;
5690;SDS011;2870;42.680;23.364;2023-04-06T11:05:06;16.90;;;12.30;;
5690;SDS011;2870;42.680;23.364;2023-04-06T11:07:33;14.73;;;10.77;;
5690;SDS011;2870;42.680;23.364;2023-04-06T11:10:01;14.03;;;10.40;;
5690;SDS011;2870;42.680;23.364;2023-04-06T11:12:28;18.37;;;10.70;;
5690;SDS011;2870;42.680;23.364;2023-04-06T11:14:56;20.30;;;10.73;;
5690;SDS011;2870;42.680;23.364;2023-04-06T11:17:30;17.27;;;11.00;;
5690;SDS011;2870;42.680;23.364;2023-04-06T11:19:59;13.67;;;10.27;;
5690;SDS011;2870;42.680;23.364;2023-04-06T11:22:26;14.57;;;10.50;;
5690;SDS011;2870;42.680;23.364;2023-04-06T11:25:04;17.17;;;11.37;;
5690;SDS011;2870;42.680;23.364;2023-04-06T11:27:31;17.23;;;10.90;;
5690;SDS011;2870;42.680;23.364;2023-04-06T11:29:59;15.37;;;12.03;;
5690;SDS011;2870;42.680;23.364;2023-04-06T11:32:27;14.80;;;11.40;;
5690;SDS011;2870;42.680;23.364;2023-04-06T11:34:57;14.90;;;10.67;;
5690;SDS011;2870;42.680;23.364;2023-04-06T11:37:25;15.53;;;11.00;;
5690;SDS011;2870;42.680;23.364;2023-04-06T11:39:54;14.07;;;9.60;;
5690;SDS011;2870;42.680;23.364;2023-04-06T11:42:22;16.83;;;9.70;;
5690;SDS011;2870;42.680;23.364;2023-04-06T11:44:50;13.47;;;10.40;;
5690;SDS011;2870;42.680;23.364;2023-04-06T11:47:19;14.67;;;10.70;;
5690;SDS011;2870;42.680;23.364;2023-04-06T11:49:53;18.23;;;9.80;;
5690;SDS011;2870;42.680;23.364;2023-04-06T11:52:22;19.70;;;11.50;;
5690;SDS011;2870;42.680;23.364;2023-04-06T11:54:50;15.50;;;11.53;;
5690;SDS011;2870;42.680;23.364;2023-04-06T11:57:21;28.53;;;10.90;;
5690;SDS011;2870;42.680;23.364;2023-04-06T11:59:49;15.30;;;11.00;;
5690;SDS011;2870;42.680;23.364;2023-04-06T12:02:16;15.53;;;10.90;;
5690;SDS011;2870;42.680;23.364;2023-04-06T12:04:43;14.50;;;10.30;;
5690;SDS011;2870;42.680;23.364;2023-04-06T12:07:10;13.17;;;10.10;;
5690;SDS011;2870;42.680;23.364;2023-04-06T12:09:39;19.70;;;9.90;;
5690;SDS011;2870;42.680;23.364;2023-04-06T12:12:05;12.77;;;10.53;;
5690;SDS011;2870;42.680;23.364;2023-04-06T12:14:32;17.20;;;10.10;;
5690;SDS011;2870;42.680;23.364;2023-04-06T12:16:59;14.60;;;9.77;;
5690;SDS011;2870;42.680;23.364;2023-04-06T12:19:26;13.50;;;10.30;;
5690;SDS011;2870;42.680;23.364;2023-04-06T12:21:53;14.77;;;10.60;;
5690;SDS011;2870;42.680;23.364;2023-04-06T12:24:21;14.30;;;10.00;;
5690;SDS011;2870;42.680;23.364;2023-04-06T12:26:50;18.10;;;11.23;;
5690;SDS011;2870;42.680;23.364;2023-04-06T12:29:16;15.40;;;10.63;;
5690;SDS011;2870;42.680;23.364;2023-04-06T12:31:43;13.50;;;9.97;;
5690;SDS011;2870;42.680;23.364;2023-04-06T12:34:10;16.40;;;10.40;;
5690;SDS011;2870;42.680;23.364;2023-04-06T12:36:38;12.90;;;10.20;;
5690;SDS011;2870;42.680;23.364;2023-04-06T12:39:05;13.20;;;10.10;;
5690;SDS011;2870;42.680;23.364;2023-04-06T12:41:32;15.50;;;10.33;;
5690;SDS011;2870;42.680;23.364;2023-04-06T12:44:00;12.93;;;10.60;;
5690;SDS011;2870;42.680;23.364;2023-04-06T12:46:28;15.13;;;8.63;;
5690;SDS011;2870;42.680;23.364;2023-04-06T12:48:56;12.30;;;9.23;;
5690;SDS011;2870;42.680;23.364;2023-04-06T12:51:24;13.37;;;9.53;;
5690;SDS011;2870;42.680;23.364;2023-04-06T12:53:52;17.23;;;9.53;;
5690;SDS011;2870;42.680;23.364;2023-04-06T12:56:18;12.93;;;9.80;;
5690;SDS011;2870;42.680;23.364;2023-04-06T12:58:48;9.57;;;7.87;;
5690;SDS011;2870;42.680;23.364;2023-04-06T13:01:18;20.93;;;11.10;;
5690;SDS011;2870;42.680;23.364;2023-04-06T13:03:45;13.90;;;9.80;;
5690;SDS011;2870;42.680;23.364;2023-04-06T13:06:12;12.20;;;9.03;;
5690;SDS011;2870;42.680;23.364;2023-04-06T13:08:40;12.77;;;10.00;;
5690;SDS011;2870;42.680;23.364;2023-04-06T13:11:07;21.03;;;11.80;;
5690;SDS011;2870;42.680;23.364;2023-04-06T13:13:34;16.70;;;10.00;;
5690;SDS011;2870;42.680;23.364;2023-04-06T13:16:02;14.03;;;9.70;;
5690;SDS011;2870;42.680;23.364;2023-04-06T13:18:32;18.83;;;12.10;;
5690;SDS011;2870;42.680;23.364;2023-04-06T13:20:59;13.43;;;10.17;;
5690;SDS011;2870;42.680;23.364;2023-04-06T13:23:26;20.00;;;10.40;;
5690;SDS011;2870;42.680;23.364;2023-04-06T13:25:56;14.33;;;9.90;;
5690;SDS011;2870;42.680;23.364;2023-04-06T13:28:25;14.27;;;9.77;;
5690;SDS011;2870;42.680;23.364;2023-04-06T13:30:52;13.37;;;10.40;;
5690;SDS011;2870;42.680;23.364;2023-04-06T13:33:19;12.23;;;9.70;;
5690;SDS011;2870;42.680;23.364;2023-04-06T13:35:47;11.30;;;9.43;;
5690;SDS011;2870;42.680;23.364;2023-04-06T13:38:14;14.87;;;10.17;;
5690;SDS011;2870;42.680;23.364;2023-04-06T13:40:41;15.93;;;10.03;;
5690;SDS011;2870;42.680;23.364;2023-04-06T13:43:08;15.10;;;10.40;;
5690;SDS011;2870;42.680;23.364;2023-04-06T13:45:36;14.30;;;10.47;;
5690;SDS011;2870;42.680;23.364;2023-04-06T13:48:03;11.00;;;9.60;;
5690;SDS011;2870;42.680;23.364;2023-04-06T13:50:30;23.87;;;9.70;;
5690;SDS011;2870;42.680;23.364;2023-04-06T13:52:59;14.90;;;9.57;;
5690;SDS011;2870;42.680;23.364;2023-04-06T13:55:26;13.23;;;9.23;;
5690;SDS011;2870;42.680;23.364;2023-04-06T13:57:53;10.30;;;8.83;;
5690;SDS011;2870;42.680;23.364;2023-04-06T14:00:20;20.20;;;8.83;;
5690;SDS011;2870;42.680;23.364;2023-04-06T14:02:47;14.87;;;10.13;;
5690;SDS011;2870;42.680;23.364;2023-04-06T14:05:14;14.53;;;9.33;;
5690;SDS011;2870;42.680;23.364;2023-04-06T14:07:41;13.50;;;9.33;;
5690;SDS011;2870;42.680;23.364;2023-04-06T14:10:09;11.67;;;8.90;;
5690;SDS011;2870;42.680;23.364;2023-04-06T14:12:39;13.27;;;9.47;;
5690;SDS011;2870;42.680;23.364;2023-04-06T14:15:07;14.83;;;9.70;;
5690;SDS011;2870;42.680;23.364;2023-04-06T14:17:35;13.57;;;9.27;;
5690;SDS011;2870;42.680;23.364;2023-04-06T14:20:02;11.20;;;8.53;;
5690;SDS011;2870;42.680;23.364;2023-04-06T14:22:30;12.73;;;9.67;;
5690;SDS011;2870;42.680;23.364;2023-04-06T14:24:57;11.80;;;8.90;;
5690;SDS011;2870;42.680;23.364;2023-04-06T14:27:25;11.47;;;9.60;;
5690;SDS011;2870;42.680;23.364;2023-04-06T14:29:52;17.87;;;10.30;;
5690;SDS011;2870;42.680;23.364;2023-04-06T14:32:20;12.37;;;9.27;;
5690;SDS011;2870;42.680;23.364;2023-04-06T14:34:47;14.30;;;10.57;;
5690;SDS011;2870;42.680;23.364;2023-04-06T14:37:13;14.20;;;10.40;;
5690;SDS011;2870;42.680;23.364;2023-04-06T14:39:41;13.73;;;11.33;;
5690;SDS011;2870;42.680;23.364;2023-04-06T14:42:08;16.83;;;10.90;;